Skip Navigation LinksHome page > Weather > Current weather Skip Navigation Links

Current Weather

Bom Jesus Da Lapa, Brazil

For information only: do not use for flight planning or navigation.
Latest weather
Observation time Monday, September 1, 2014 10:00 AM BRT
Local time Monday, September 1, 2014 10:37 AM BRT
Flight conditions Visual Meteorological Conditions
Winds
Wind direction North-Northeast (30°)
Wind speed 9 mph
Visibility 6.2 mi.
Sky condition
Ceiling unlimited
Sky clear
Temperature 88°F
Dewpoint 57°F
Altimeter 30.06 in.Hg
Derived measurements
Relative humidity 36%
Heat index 88°F
Density altitude 3338 ft.
Remarks
Ceiling and visibility OK.
METAR SBLP 011300Z 03008KT CAVOK 31/14 Q1018

Settings

Location code

InnerDrive.Weather 4.0.5356.0 Release CLR 4.0.30319.34014
Copyright ©2014 Inner Drive Technology. All rights reserved. Portions Copyright ©1986-2014 David Braverman.

Find weather

Site navigation


Skip Navigation Links

Place info

Page info

PayPal - The safer, easier way to pay online!

Return home.

Copyright ©2014 Inner Drive Technology. Purveyors of fine, hand-crafted computer software. Page printed 2014-09-01T13:37:09 UTC.